createdAt,value
2019-01-27T00:00:00.628Z,98795.02
2019-01-27T00:02:27.462Z,98789.23
2019-01-27T00:04:54.204Z,98775.33
2019-01-27T00:07:20.958Z,98768.63
2019-01-27T00:09:47.710Z,98764.70
2019-01-27T00:12:14.493Z,98761.83
2019-01-27T00:14:41.228Z,98755.06
2019-01-27T00:17:07.996Z,98753.95
2019-01-27T00:19:34.735Z,98755.28
2019-01-27T00:22:01.493Z,98743.34
2019-01-27T00:24:28.249Z,98740.44
2019-01-27T00:26:55.000Z,98735.95
2019-01-27T00:29:21.744Z,98730.95
2019-01-27T00:31:48.525Z,98728.80
2019-01-27T00:34:15.276Z,98712.86
2019-01-27T00:36:42.040Z,98704.83
2019-01-27T00:39:09.263Z,98700.84
2019-01-27T00:41:35.988Z,98696.27
2019-01-27T00:44:02.740Z,98684.50
2019-01-27T00:46:29.485Z,98685.63
2019-01-27T00:48:56.257Z,98677.81
2019-01-27T00:51:22.997Z,98672.77
2019-01-27T00:53:49.763Z,98664.45
2019-01-27T00:56:16.508Z,98664.50
2019-01-27T00:58:43.270Z,98659.45
2019-01-27T01:01:10.033Z,98656.57
2019-01-27T01:03:36.796Z,98646.15
2019-01-27T01:06:03.580Z,98648.20
2019-01-27T01:08:30.367Z,98631.64
2019-01-27T01:10:57.116Z,98629.27
2019-01-27T01:13:23.884Z,98622.28
2019-01-27T01:15:50.621Z,98627.73
2019-01-27T01:18:17.383Z,98620.13
2019-01-27T01:20:44.124Z,98611.50
2019-01-27T01:23:10.880Z,98604.65
2019-01-27T01:25:37.627Z,98600.98
2019-01-27T01:28:04.388Z,98594.55
2019-01-27T01:30:31.160Z,98589.39
2019-01-27T01:32:57.943Z,98584.36
2019-01-27T01:35:24.680Z,98588.34
2019-01-27T01:37:51.440Z,98587.31
2019-01-27T01:40:18.187Z,98584.95
2019-01-27T01:42:44.952Z,98572.33
2019-01-27T01:45:17.720Z,98560.66
2019-01-27T01:47:44.492Z,98560.36
2019-01-27T01:50:11.229Z,98552.05
2019-01-27T01:52:38.006Z,98547.69
2019-01-27T01:55:04.756Z,98551.66
2019-01-27T01:57:31.524Z,98551.17
2019-01-27T01:59:58.281Z,98541.81
2019-01-27T02:02:25.049Z,98537.42
2019-01-27T02:04:51.792Z,98528.99
2019-01-27T02:07:18.556Z,98519.59
2019-01-27T02:09:45.398Z,98512.49
2019-01-27T02:12:12.143Z,98504.49
2019-01-27T02:14:38.923Z,98496.33
2019-01-27T02:17:05.673Z,98480.63
2019-01-27T02:19:32.424Z,98477.75
2019-01-27T02:21:59.164Z,98473.88
2019-01-27T02:24:25.920Z,98465.24
2019-01-27T02:26:52.668Z,98459.69
2019-01-27T02:29:19.427Z,98447.61
2019-01-27T02:31:46.191Z,98446.16
2019-01-27T02:34:12.956Z,98439.22
2019-01-27T02:36:39.725Z,98439.50
2019-01-27T02:39:07.971Z,98435.55
2019-01-27T02:41:34.726Z,98432.00
2019-01-27T02:44:01.469Z,98424.75
2019-01-27T02:46:28.260Z,98421.66
2019-01-27T02:48:54.996Z,98408.45
2019-01-27T02:51:21.845Z,98403.13
2019-01-27T02:53:48.580Z,98401.97
2019-01-27T02:56:15.421Z,98396.84
2019-01-27T02:58:42.160Z,98388.91
2019-01-27T03:01:08.911Z,98382.02
2019-01-27T03:03:35.644Z,98377.34
2019-01-27T03:06:15.740Z,98380.08
2019-01-27T03:09:03.183Z,98370.73
2019-01-27T03:11:46.501Z,98356.58
2019-01-27T03:14:13.239Z,98348.02
2019-01-27T03:16:40.013Z,98353.69
2019-01-27T03:19:06.750Z,98342.08
2019-01-27T03:21:33.504Z,98340.63
2019-01-27T03:24:00.250Z,98333.54
2019-01-27T03:26:27.017Z,98331.11
2019-01-27T03:28:53.763Z,98322.25
2019-01-27T03:31:20.562Z,98315.97
2019-01-27T03:33:47.296Z,98314.53
2019-01-27T03:36:14.058Z,98309.52
2019-01-27T03:38:40.798Z,98305.96
2019-01-27T03:41:07.572Z,98292.44
2019-01-27T03:43:34.318Z,98286.30
2019-01-27T03:46:01.044Z,98281.14
2019-01-27T03:48:27.856Z,98284.36
2019-01-27T03:50:54.590Z,98275.67
2019-01-27T03:53:21.347Z,98278.56
2019-01-27T03:55:48.089Z,98276.95
2019-01-27T03:58:14.929Z,98272.44
2019-01-27T04:00:41.697Z,98272.60
2019-01-27T04:03:08.484Z,98259.84
2019-01-27T04:05:35.232Z,98264.21
2019-01-27T04:08:02.005Z,98262.11
2019-01-27T04:10:28.752Z,98263.08
2019-01-27T04:12:55.521Z,98259.86
2019-01-27T04:15:22.261Z,98249.88
2019-01-27T04:17:49.026Z,98244.05
2019-01-27T04:20:17.232Z,98248.58
2019-01-27T04:22:44.036Z,98245.36
2019-01-27T04:25:10.918Z,98244.24
2019-01-27T04:27:37.746Z,98236.19
2019-01-27T04:30:06.708Z,98234.25
2019-01-27T04:32:33.482Z,98223.14
2019-01-27T04:35:00.232Z,98224.41
2019-01-27T04:37:26.969Z,98217.66
2019-01-27T04:39:53.707Z,98216.05
2019-01-27T04:42:20.485Z,98198.34
2019-01-27T04:44:47.229Z,98197.38
2019-01-27T04:47:13.979Z,98196.55
2019-01-27T04:49:40.712Z,98195.27
2019-01-27T04:52:07.496Z,98188.50
2019-01-27T04:54:34.229Z,98184.80
2019-01-27T04:57:00.998Z,98184.80
2019-01-27T04:59:27.727Z,98184.33
2019-01-27T05:01:54.492Z,98178.69
2019-01-27T05:04:29.244Z,98175.78
2019-01-27T05:06:55.976Z,98168.55
2019-01-27T05:09:22.739Z,98165.79
2019-01-27T05:11:49.488Z,98165.31
2019-01-27T05:14:16.275Z,98159.98
2019-01-27T05:16:43.036Z,98159.83
2019-01-27T05:19:09.807Z,98153.23
2019-01-27T05:21:36.541Z,98157.77
2019-01-27T05:24:03.314Z,98153.23
2019-01-27T05:26:30.049Z,98143.91
2019-01-27T05:28:56.802Z,98147.44
2019-01-27T05:31:23.546Z,98144.22
2019-01-27T05:33:50.303Z,98135.70
2019-01-27T05:36:17.041Z,98121.67
2019-01-27T05:38:43.804Z,98120.72
2019-01-27T05:41:10.540Z,98113.59
2019-01-27T05:43:37.302Z,98100.07
2019-01-27T05:46:04.056Z,98101.06
2019-01-27T05:48:30.809Z,98100.10
2019-01-27T05:50:57.544Z,98097.52
2019-01-27T05:53:24.394Z,98097.83
2019-01-27T05:55:51.135Z,98087.84
2019-01-27T05:58:17.890Z,98088.02
2019-01-27T06:00:45.368Z,98083.34
2019-01-27T06:03:12.128Z,98083.30
2019-01-27T06:05:38.872Z,98076.41
2019-01-27T06:08:05.637Z,98077.84
2019-01-27T06:10:32.376Z,98080.42
2019-01-27T06:12:59.160Z,98067.88
2019-01-27T06:15:25.905Z,98059.17
2019-01-27T06:17:52.683Z,98064.30
2019-01-27T06:20:19.424Z,98060.44
2019-01-27T06:22:46.235Z,98064.46
2019-01-27T06:25:13.947Z,98062.06
2019-01-27T06:27:40.682Z,98054.36
2019-01-27T06:30:14.897Z,98041.95
2019-01-27T06:32:47.953Z,98038.73
2019-01-27T06:35:14.713Z,98031.48
2019-01-27T06:37:41.456Z,98028.91
2019-01-27T06:40:08.248Z,98027.14
2019-01-27T06:42:34.998Z,98026.00
2019-01-27T06:45:01.760Z,98019.91
2019-01-27T06:47:28.493Z,98014.41
2019-01-27T06:49:55.248Z,98005.23
2019-01-27T06:52:21.988Z,98004.25
2019-01-27T06:54:48.782Z,98001.18
2019-01-27T06:57:15.532Z,98002.77
2019-01-27T06:59:51.552Z,97999.89
2019-01-27T07:02:29.483Z,97999.82
2019-01-27T07:04:58.017Z,98002.77
2019-01-27T07:07:35.368Z,98005.86
2019-01-27T07:10:14.116Z,97999.08
2019-01-27T07:12:49.196Z,97989.58
2019-01-27T07:15:21.811Z,97987.49
2019-01-27T07:17:59.351Z,97986.36
2019-01-27T07:20:32.749Z,97981.36
2019-01-27T07:23:08.461Z,97975.23
2019-01-27T07:25:42.997Z,97979.73
2019-01-27T07:28:34.738Z,97972.36
2019-01-27T07:31:26.976Z,97974.60
2019-01-27T07:34:04.009Z,97979.88
2019-01-27T07:36:50.377Z,97978.00
2019-01-27T07:39:22.976Z,97969.11
2019-01-27T07:41:56.608Z,97972.34
2019-01-27T07:44:34.328Z,97966.25
2019-01-27T07:47:09.643Z,97963.09
2019-01-27T07:49:47.564Z,97953.98
2019-01-27T07:52:36.724Z,97952.50
2019-01-27T07:55:23.257Z,97950.70
2019-01-27T07:57:58.552Z,97948.27
2019-01-27T08:00:31.015Z,97931.59
2019-01-27T08:03:03.808Z,97930.08
2019-01-27T08:05:45.008Z,97936.11
2019-01-27T08:08:32.267Z,97932.62
2019-01-27T08:11:15.428Z,97936.52
2019-01-27T08:13:47.789Z,97924.72
2019-01-27T08:16:26.994Z,97933.81
2019-01-27T08:19:05.248Z,97933.84
2019-01-27T08:21:42.764Z,97919.59
2019-01-27T08:24:32.082Z,97920.22
2019-01-27T08:27:08.383Z,97914.89
2019-01-27T08:29:40.784Z,97912.08
2019-01-27T08:32:15.152Z,97910.70
2019-01-27T08:34:53.796Z,97906.97
2019-01-27T08:37:34.913Z,97913.02
2019-01-27T08:40:07.340Z,97905.36
2019-01-27T08:42:43.901Z,97912.21
2019-01-27T08:45:20.209Z,97907.59
2019-01-27T08:47:46.957Z,97909.95
2019-01-27T08:50:15.836Z,97912.49
2019-01-27T08:52:42.580Z,97903.09
2019-01-27T08:55:11.560Z,97909.59
2019-01-27T08:57:38.292Z,97914.00
2019-01-27T09:00:06.784Z,97905.55
2019-01-27T09:02:46.596Z,97907.55
2019-01-27T09:05:20.637Z,97904.43
2019-01-27T09:07:53.125Z,97901.41
2019-01-27T09:10:25.760Z,97895.41
2019-01-27T09:12:58.276Z,97884.24
2019-01-27T09:15:50.708Z,97892.22
2019-01-27T09:18:23.256Z,97895.56
2019-01-27T09:21:11.643Z,97888.78
2019-01-27T09:23:46.097Z,97888.75
2019-01-27T09:26:18.821Z,97887.38
2019-01-27T09:29:09.136Z,97877.54
2019-01-27T09:31:41.651Z,97872.63
2019-01-27T09:34:15.284Z,97873.18
2019-01-27T09:36:56.973Z,97871.47
2019-01-27T09:39:39.916Z,97872.81
2019-01-27T09:42:17.370Z,97871.47
2019-01-27T09:44:53.836Z,97870.83
2019-01-27T09:47:26.329Z,97875.99
2019-01-27T09:50:01.396Z,97878.58
2019-01-27T09:52:37.377Z,97882.94
2019-01-27T09:55:12.341Z,97880.07
2019-01-27T09:57:47.589Z,97874.85
2019-01-27T10:00:23.022Z,97874.03
2019-01-27T10:03:00.884Z,97876.43
2019-01-27T10:05:50.120Z,97875.86
2019-01-27T10:08:33.846Z,97869.34
2019-01-27T10:11:26.488Z,97872.41
2019-01-27T10:13:54.444Z,97864.69
2019-01-27T10:16:30.560Z,97859.21
2019-01-27T10:19:09.246Z,97864.11
2019-01-27T10:21:46.631Z,97853.67
2019-01-27T10:24:20.998Z,97852.36
2019-01-27T10:27:01.829Z,97859.57
2019-01-27T10:29:51.580Z,97843.48
2019-01-27T10:32:28.940Z,97850.17
2019-01-27T10:35:08.333Z,97836.76
2019-01-27T10:37:41.310Z,97836.73
2019-01-27T10:40:30.556Z,97833.48
2019-01-27T10:43:12.420Z,97825.08
2019-01-27T10:46:01.592Z,97822.90
2019-01-27T10:48:34.310Z,97819.45
2019-01-27T10:51:08.043Z,97820.56
2019-01-27T10:53:43.368Z,97827.51
2019-01-27T10:56:21.596Z,97817.12
2019-01-27T10:58:56.284Z,97808.09
2019-01-27T11:01:43.656Z,97807.77
2019-01-27T11:04:21.613Z,97802.45
2019-01-27T11:07:08.883Z,97783.61
2019-01-27T11:09:55.380Z,97772.91
2019-01-27T11:12:32.436Z,97770.93
2019-01-27T11:15:05.078Z,97756.09
2019-01-27T11:17:39.643Z,97754.43
2019-01-27T11:20:22.245Z,97759.71
2019-01-27T11:23:03.150Z,97755.91
2019-01-27T11:25:35.456Z,97745.37
2019-01-27T11:28:14.540Z,97739.84
2019-01-27T11:30:49.600Z,97734.52
2019-01-27T11:33:23.696Z,97733.53
2019-01-27T11:36:01.037Z,97733.66
2019-01-27T11:38:39.619Z,97729.09
2019-01-27T11:41:12.097Z,97720.38
2019-01-27T11:44:00.496Z,97707.30
2019-01-27T11:46:35.208Z,97697.44
2019-01-27T11:49:10.308Z,97700.11
2019-01-27T11:51:42.509Z,97688.88
2019-01-27T11:54:09.270Z,97693.61
2019-01-27T11:56:36.134Z,97684.30
2019-01-27T11:59:02.957Z,97687.37
2019-01-27T12:01:29.706Z,97678.88
2019-01-27T12:03:56.580Z,97664.76
2019-01-27T12:06:23.513Z,97665.75
2019-01-27T12:08:50.302Z,97668.73
2019-01-27T12:11:17.130Z,97663.08
2019-01-27T12:13:43.983Z,97661.09
2019-01-27T12:16:10.732Z,97655.12
2019-01-27T12:18:37.694Z,97651.03
2019-01-27T12:21:04.730Z,97648.14
2019-01-27T12:23:31.647Z,97650.39
2019-01-27T12:25:58.387Z,97654.13
2019-01-27T12:28:25.244Z,97654.52
2019-01-27T12:30:51.967Z,97647.19
2019-01-27T12:33:18.746Z,97655.45
2019-01-27T12:35:45.475Z,97641.97
2019-01-27T12:38:12.232Z,97639.80
2019-01-27T12:40:38.968Z,97650.16
2019-01-27T12:43:05.747Z,97632.23
2019-01-27T12:45:32.494Z,97644.98
2019-01-27T12:47:59.253Z,97636.98
2019-01-27T12:50:25.988Z,97636.26
2019-01-27T12:52:52.747Z,97629.87
2019-01-27T12:55:19.561Z,97629.66
2019-01-27T12:57:46.312Z,97624.30
2019-01-27T13:00:20.885Z,97624.40
2019-01-27T13:02:47.644Z,97623.92
2019-01-27T13:05:14.389Z,97619.64
2019-01-27T13:07:41.128Z,97612.86
2019-01-27T13:10:10.016Z,97603.69
2019-01-27T13:12:36.760Z,97607.48
2019-01-27T13:15:04.141Z,97607.17
2019-01-27T13:17:30.997Z,97603.58
2019-01-27T13:19:57.788Z,97603.28
2019-01-27T13:22:24.561Z,97610.37
2019-01-27T13:24:51.326Z,97607.59
2019-01-27T13:27:18.119Z,97611.34
2019-01-27T13:29:44.900Z,97604.77
2019-01-27T13:32:11.636Z,97599.73
2019-01-27T13:34:38.416Z,97582.84
2019-01-27T13:37:05.176Z,97602.45
2019-01-27T13:39:31.943Z,97607.73
2019-01-27T13:41:58.680Z,97604.80
2019-01-27T13:44:25.448Z,97598.77
2019-01-27T13:46:52.180Z,97599.53
2019-01-27T13:49:18.937Z,97588.18
2019-01-27T13:51:45.733Z,97585.92
2019-01-27T13:54:12.491Z,97592.53
2019-01-27T13:56:39.248Z,97587.28
2019-01-27T13:59:06.000Z,97591.47
2019-01-27T14:01:32.732Z,97595.05
2019-01-27T14:03:59.492Z,97598.94
2019-01-27T14:06:26.232Z,97603.25
2019-01-27T14:08:53.001Z,97595.65
2019-01-27T14:11:19.763Z,97594.28
2019-01-27T14:13:46.510Z,97599.26
2019-01-27T14:16:13.260Z,97592.66
2019-01-27T14:18:39.997Z,97591.06
2019-01-27T14:21:06.756Z,97599.86
2019-01-27T14:23:33.548Z,97598.97
2019-01-27T14:26:00.284Z,97596.28
2019-01-27T14:28:27.035Z,97601.37
2019-01-27T14:30:53.791Z,97599.81
2019-01-27T14:33:20.531Z,97591.45
2019-01-27T14:35:47.316Z,97593.98
2019-01-27T14:38:14.174Z,97591.00
2019-01-27T14:40:41.012Z,97592.54
2019-01-27T14:43:07.790Z,97591.14
2019-01-27T14:45:34.549Z,97585.31
2019-01-27T14:48:01.297Z,97589.44
2019-01-27T14:50:30.186Z,97588.59
2019-01-27T14:52:56.943Z,97587.17
2019-01-27T14:55:23.691Z,97587.76
2019-01-27T14:57:50.440Z,97590.20
2019-01-27T15:00:19.791Z,97591.48
2019-01-27T15:02:46.622Z,97586.84
2019-01-27T15:05:13.388Z,97588.86
2019-01-27T15:07:40.148Z,97587.04
2019-01-27T15:10:09.336Z,97594.91
2019-01-27T15:12:36.080Z,97583.66
2019-01-27T15:15:03.343Z,97585.92
2019-01-27T15:17:30.068Z,97593.09
2019-01-27T15:19:56.904Z,97587.62
2019-01-27T15:22:23.632Z,97589.56
2019-01-27T15:24:50.404Z,97584.39
2019-01-27T15:27:17.143Z,97590.20
2019-01-27T15:29:43.952Z,97591.02
2019-01-27T15:32:10.696Z,97594.43
2019-01-27T15:34:37.431Z,97587.73
2019-01-27T15:37:04.196Z,97596.20
2019-01-27T15:39:30.933Z,97590.55
2019-01-27T15:41:57.690Z,97600.00
2019-01-27T15:44:24.456Z,97592.83
2019-01-27T15:46:51.212Z,97592.39
2019-01-27T15:49:17.960Z,97589.00
2019-01-27T15:51:44.727Z,97593.67
2019-01-27T15:54:11.452Z,97589.84
2019-01-27T15:56:38.214Z,97594.59
2019-01-27T15:59:05.009Z,97589.92
2019-01-27T16:01:31.768Z,97578.72
2019-01-27T16:03:58.507Z,97584.95
2019-01-27T16:06:25.264Z,97588.52
2019-01-27T16:08:52.032Z,97588.33
2019-01-27T16:11:18.867Z,97584.34
2019-01-27T16:13:45.609Z,97591.64
2019-01-27T16:16:12.404Z,97600.83
2019-01-27T16:18:39.150Z,97601.94
2019-01-27T16:21:05.913Z,97597.52
2019-01-27T16:23:39.772Z,97601.20
2019-01-27T16:26:06.525Z,97599.61
2019-01-27T16:28:33.268Z,97604.09
2019-01-27T16:31:12.212Z,97608.39
2019-01-27T16:33:43.900Z,97615.72
2019-01-27T16:36:10.659Z,97607.89
2019-01-27T16:38:37.396Z,97611.73
2019-01-27T16:41:04.152Z,97610.24
2019-01-27T16:43:30.942Z,97604.35
2019-01-27T16:45:57.676Z,97604.89
2019-01-27T16:48:24.416Z,97600.63
2019-01-27T16:50:51.172Z,97598.50
2019-01-27T16:53:17.908Z,97599.86
2019-01-27T16:55:44.685Z,97596.41
2019-01-27T16:58:11.405Z,97600.05
2019-01-27T17:00:38.163Z,97599.72
2019-01-27T17:03:04.916Z,97601.13
2019-01-27T17:05:31.673Z,97603.23
2019-01-27T17:07:58.435Z,97600.53
2019-01-27T17:10:25.213Z,97600.95
2019-01-27T17:12:51.977Z,97605.24
2019-01-27T17:15:18.724Z,97601.67
2019-01-27T17:17:45.507Z,97605.70
2019-01-27T17:20:13.764Z,97611.20
2019-01-27T17:22:40.525Z,97611.81
2019-01-27T17:25:08.112Z,97609.18
2019-01-27T17:27:34.932Z,97616.25
2019-01-27T17:30:01.676Z,97625.05
2019-01-27T17:32:28.445Z,97630.94
2019-01-27T17:34:55.181Z,97626.58
2019-01-27T17:37:21.947Z,97637.33
2019-01-27T17:39:48.711Z,97641.67
2019-01-27T17:42:15.465Z,97635.22
2019-01-27T17:44:42.228Z,97642.92
2019-01-27T17:47:08.997Z,97647.29
2019-01-27T17:49:35.750Z,97653.31
2019-01-27T17:52:02.521Z,97638.75
2019-01-27T17:54:29.301Z,97646.36
2019-01-27T17:57:05.003Z,97639.33
2019-01-27T17:59:38.907Z,97651.48
2019-01-27T18:02:16.116Z,97661.67
2019-01-27T18:05:08.252Z,97664.56
2019-01-27T18:07:44.287Z,97659.46
2019-01-27T18:10:17.768Z,97649.81
2019-01-27T18:13:06.042Z,97669.83
2019-01-27T18:15:34.557Z,97669.57
2019-01-27T18:17:59.588Z,97661.22
2019-01-27T18:20:26.305Z,97668.97
2019-01-27T18:22:53.057Z,97678.05
2019-01-27T18:25:19.820Z,97681.66
2019-01-27T18:27:46.574Z,97682.03
2019-01-27T18:30:16.472Z,97686.52
2019-01-27T18:32:43.228Z,97690.17
2019-01-27T18:35:09.984Z,97691.78
2019-01-27T18:37:36.738Z,97693.25
2019-01-27T18:40:04.374Z,97704.23
2019-01-27T18:42:31.124Z,97703.30
2019-01-27T18:44:57.888Z,97714.27
2019-01-27T18:47:24.674Z,97723.16
2019-01-27T18:49:51.404Z,97733.47
2019-01-27T18:52:18.156Z,97739.42
2019-01-27T18:55:05.296Z,97741.38
2019-01-27T18:57:37.820Z,97763.10
2019-01-27T19:00:17.234Z,97764.08
2019-01-27T19:02:51.368Z,97769.73
2019-01-27T19:05:28.124Z,97782.13
2019-01-27T19:08:01.922Z,97799.85
2019-01-27T19:10:49.044Z,97804.20
2019-01-27T19:13:27.304Z,97811.83
2019-01-27T19:16:04.648Z,97821.27
2019-01-27T19:18:51.017Z,97830.98
2019-01-27T19:21:25.368Z,97839.20
2019-01-27T19:24:12.765Z,97841.66
2019-01-27T19:26:45.143Z,97855.32
2019-01-27T19:29:17.712Z,97858.06
2019-01-27T19:32:04.056Z,97862.88
2019-01-27T19:34:54.200Z,97874.33
2019-01-27T19:37:25.728Z,97890.59
2019-01-27T19:40:01.950Z,97902.20
2019-01-27T19:42:34.493Z,97913.63
2019-01-27T19:45:07.695Z,97927.36
2019-01-27T19:47:51.729Z,97934.66
2019-01-27T19:50:38.101Z,97945.31
2019-01-27T19:53:24.557Z,97957.88
2019-01-27T19:56:10.952Z,97959.18
2019-01-27T19:58:58.349Z,97969.16
2019-01-27T20:01:44.692Z,97978.16
2019-01-27T20:04:22.045Z,97980.91
2019-01-27T20:06:54.501Z,97993.62
2019-01-27T20:09:30.184Z,97999.72
2019-01-27T20:12:08.400Z,98010.64
2019-01-27T20:14:47.629Z,98017.88
2019-01-27T20:17:20.012Z,98023.19
2019-01-27T20:20:06.385Z,98026.57
2019-01-27T20:22:40.416Z,98033.78
2019-01-27T20:25:19.708Z,98040.05
2019-01-27T20:27:53.040Z,98053.37
2019-01-27T20:30:29.180Z,98049.83
2019-01-27T20:33:01.942Z,98052.36
2019-01-27T20:35:40.499Z,98053.01
2019-01-27T20:38:20.007Z,98064.86
2019-01-27T20:40:55.145Z,98072.08
2019-01-27T20:43:41.494Z,98080.59
2019-01-27T20:46:19.428Z,98090.72
2019-01-27T20:48:53.880Z,98099.55
2019-01-27T20:51:30.597Z,98093.59
2019-01-27T20:54:19.896Z,98110.58
2019-01-27T20:56:52.007Z,98107.36
2019-01-27T20:59:35.069Z,98117.47
2019-01-27T21:02:11.840Z,98128.72
2019-01-27T21:04:44.369Z,98124.86
2019-01-27T21:07:31.655Z,98130.16
2019-01-27T21:10:12.425Z,98132.03
2019-01-27T21:12:42.544Z,98147.26
2019-01-27T21:15:44.035Z,98151.38
2019-01-27T21:18:15.205Z,98163.87
2019-01-27T21:20:42.132Z,98168.03
2019-01-27T21:23:08.869Z,98163.95
2019-01-27T21:25:35.620Z,98181.75
2019-01-27T21:28:02.345Z,98188.48
2019-01-27T21:30:29.080Z,98184.30
2019-01-27T21:32:55.880Z,98192.58
2019-01-27T21:35:22.556Z,98197.39
2019-01-27T21:37:49.295Z,98202.14
2019-01-27T21:40:17.600Z,98200.53
2019-01-27T21:42:47.453Z,98196.62
2019-01-27T21:45:11.445Z,98200.80
2019-01-27T21:47:38.184Z,98224.29
2019-01-27T21:50:07.461Z,98222.70
2019-01-27T21:52:34.208Z,98228.83
2019-01-27T21:55:00.961Z,98227.55
2019-01-27T21:57:27.688Z,98231.70
2019-01-27T21:59:54.424Z,98242.47
2019-01-27T22:02:21.177Z,98239.81
2019-01-27T22:04:47.909Z,98241.25
2019-01-27T22:07:14.648Z,98245.94
2019-01-27T22:09:41.368Z,98242.56
2019-01-27T22:12:08.104Z,98248.32
2019-01-27T22:14:34.832Z,98251.25
2019-01-27T22:17:01.592Z,98250.92
2019-01-27T22:19:28.299Z,98253.45
2019-01-27T22:21:55.249Z,98247.55
2019-01-27T22:24:21.992Z,98259.76
2019-01-27T22:26:48.749Z,98261.40
2019-01-27T22:29:15.591Z,98258.78
2019-01-27T22:31:42.336Z,98261.34
2019-01-27T22:34:09.064Z,98257.81
2019-01-27T22:36:35.863Z,98256.53
2019-01-27T22:39:02.580Z,98262.69
2019-01-27T22:41:29.337Z,98263.82
2019-01-27T22:43:56.082Z,98258.45
2019-01-27T22:46:22.977Z,98266.53
2019-01-27T22:48:49.707Z,98262.33
2019-01-27T22:51:16.451Z,98272.60
2019-01-27T22:53:43.189Z,98273.88
2019-01-27T22:56:09.928Z,98277.29
2019-01-27T22:58:36.656Z,98279.05
2019-01-27T23:01:07.676Z,98276.30
2019-01-27T23:03:38.015Z,98288.63
2019-01-27T23:06:04.760Z,98288.72
2019-01-27T23:08:31.683Z,98284.87
2019-01-27T23:10:58.433Z,98291.63
2019-01-27T23:13:25.160Z,98295.86
2019-01-27T23:15:51.905Z,98299.20
2019-01-27T23:18:18.652Z,98297.27
2019-01-27T23:20:45.380Z,98305.81
2019-01-27T23:23:12.127Z,98306.34
2019-01-27T23:25:38.848Z,98313.62
2019-01-27T23:28:05.605Z,98312.23
2019-01-27T23:30:32.332Z,98309.84
2019-01-27T23:32:59.088Z,98315.66
2019-01-27T23:35:25.816Z,98318.88
2019-01-27T23:37:52.608Z,98320.16
2019-01-27T23:40:19.399Z,98323.36
2019-01-27T23:42:46.108Z,98330.73
2019-01-27T23:45:12.858Z,98332.16
2019-01-27T23:47:39.600Z,98336.67
2019-01-27T23:50:06.372Z,98341.14
2019-01-27T23:52:33.129Z,98341.77
2019-01-27T23:54:59.862Z,98337.87
2019-01-27T23:57:26.608Z,98340.49
2019-01-27T23:59:53.336Z,98341.23
